sensor_id;sensor_type;location;lat;lon;timestamp;P1;durP1;ratioP1;P2;durP2;ratioP2
41139;SDS011;26881;48.784;9.192;2024-02-23T00:00:06;0.40;;;0.40;;
41139;SDS011;26881;48.784;9.192;2024-02-23T00:05:29;0.47;;;0.47;;
41139;SDS011;26881;48.784;9.192;2024-02-23T00:10:51;0.90;;;0.70;;
41139;SDS011;26881;48.784;9.192;2024-02-23T00:16:13;1.33;;;0.50;;
41139;SDS011;26881;48.784;9.192;2024-02-23T00:21:35;1.80;;;1.00;;
41139;SDS011;26881;48.784;9.192;2024-02-23T00:26:58;1.83;;;0.57;;
41139;SDS011;26881;48.784;9.192;2024-02-23T00:32:20;0.97;;;0.80;;
41139;SDS011;26881;48.784;9.192;2024-02-23T00:37:42;0.63;;;0.60;;
41139;SDS011;26881;48.784;9.192;2024-02-23T00:43:04;3.13;;;0.70;;
41139;SDS011;26881;48.784;9.192;2024-02-23T00:48:26;0.70;;;0.40;;
41139;SDS011;26881;48.784;9.192;2024-02-23T00:53:48;0.60;;;0.50;;
41139;SDS011;26881;48.784;9.192;2024-02-23T00:59:10;0.90;;;0.70;;
41139;SDS011;26881;48.784;9.192;2024-02-23T01:04:32;2.63;;;0.60;;
41139;SDS011;26881;48.784;9.192;2024-02-23T01:09:53;1.90;;;0.50;;
41139;SDS011;26881;48.784;9.192;2024-02-23T01:15:15;1.53;;;0.50;;
41139;SDS011;26881;48.784;9.192;2024-02-23T01:20:37;1.57;;;0.83;;
41139;SDS011;26881;48.784;9.192;2024-02-23T01:25:59;1.43;;;0.70;;
41139;SDS011;26881;48.784;9.192;2024-02-23T01:31:21;4.50;;;0.80;;
41139;SDS011;26881;48.784;9.192;2024-02-23T01:36:43;3.53;;;1.00;;
41139;SDS011;26881;48.784;9.192;2024-02-23T01:42:05;1.87;;;0.73;;
41139;SDS011;26881;48.784;9.192;2024-02-23T01:47:27;4.47;;;0.80;;
41139;SDS011;26881;48.784;9.192;2024-02-23T01:52:50;2.07;;;0.70;;
41139;SDS011;26881;48.784;9.192;2024-02-23T01:58:14;5.03;;;0.70;;
41139;SDS011;26881;48.784;9.192;2024-02-23T02:03:38;2.73;;;0.83;;
41139;SDS011;26881;48.784;9.192;2024-02-23T02:09:00;3.27;;;0.70;;
41139;SDS011;26881;48.784;9.192;2024-02-23T02:14:22;3.57;;;0.87;;
41139;SDS011;26881;48.784;9.192;2024-02-23T02:19:50;4.37;;;0.90;;
41139;SDS011;26881;48.784;9.192;2024-02-23T02:25:13;1.23;;;0.70;;
41139;SDS011;26881;48.784;9.192;2024-02-23T02:30:37;2.70;;;0.70;;
41139;SDS011;26881;48.784;9.192;2024-02-23T02:35:59;2.27;;;0.80;;
41139;SDS011;26881;48.784;9.192;2024-02-23T02:41:22;3.70;;;1.03;;
41139;SDS011;26881;48.784;9.192;2024-02-23T02:46:46;1.17;;;0.70;;
41139;SDS011;26881;48.784;9.192;2024-02-23T02:52:09;2.73;;;1.07;;
41139;SDS011;26881;48.784;9.192;2024-02-23T02:57:30;2.13;;;0.70;;
41139;SDS011;26881;48.784;9.192;2024-02-23T03:02:52;1.40;;;0.77;;
41139;SDS011;26881;48.784;9.192;2024-02-23T03:08:14;1.35;;;0.65;;
41139;SDS011;26881;48.784;9.192;2024-02-23T03:13:36;1.03;;;0.60;;
41139;SDS011;26881;48.784;9.192;2024-02-23T03:18:58;2.17;;;0.70;;
41139;SDS011;26881;48.784;9.192;2024-02-23T03:24:20;3.47;;;0.80;;
41139;SDS011;26881;48.784;9.192;2024-02-23T03:29:42;2.37;;;1.20;;
41139;SDS011;26881;48.784;9.192;2024-02-23T03:35:05;4.23;;;0.80;;
41139;SDS011;26881;48.784;9.192;2024-02-23T03:40:28;2.63;;;0.80;;
41139;SDS011;26881;48.784;9.192;2024-02-23T03:45:50;1.30;;;0.60;;
41139;SDS011;26881;48.784;9.192;2024-02-23T03:51:12;2.17;;;0.80;;
41139;SDS011;26881;48.784;9.192;2024-02-23T03:56:40;3.27;;;0.90;;
41139;SDS011;26881;48.784;9.192;2024-02-23T04:02:03;3.07;;;0.90;;
41139;SDS011;26881;48.784;9.192;2024-02-23T04:07:26;3.30;;;0.70;;
41139;SDS011;26881;48.784;9.192;2024-02-23T04:12:48;3.17;;;0.80;;
41139;SDS011;26881;48.784;9.192;2024-02-23T04:18:09;5.83;;;0.80;;
41139;SDS011;26881;48.784;9.192;2024-02-23T04:23:31;1.47;;;0.90;;
41139;SDS011;26881;48.784;9.192;2024-02-23T04:28:53;2.17;;;0.90;;
41139;SDS011;26881;48.784;9.192;2024-02-23T04:34:15;3.50;;;0.67;;
41139;SDS011;26881;48.784;9.192;2024-02-23T04:39:38;4.07;;;1.17;;
41139;SDS011;26881;48.784;9.192;2024-02-23T04:45:03;2.77;;;1.07;;
41139;SDS011;26881;48.784;9.192;2024-02-23T04:50:25;2.77;;;0.90;;
41139;SDS011;26881;48.784;9.192;2024-02-23T04:55:47;3.40;;;0.90;;
41139;SDS011;26881;48.784;9.192;2024-02-23T05:01:09;6.13;;;0.87;;
41139;SDS011;26881;48.784;9.192;2024-02-23T05:06:32;4.37;;;0.80;;
41139;SDS011;26881;48.784;9.192;2024-02-23T05:11:54;1.10;;;0.70;;
41139;SDS011;26881;48.784;9.192;2024-02-23T05:17:16;2.90;;;0.83;;
41139;SDS011;26881;48.784;9.192;2024-02-23T05:22:39;3.77;;;1.07;;
41139;SDS011;26881;48.784;9.192;2024-02-23T05:28:01;4.67;;;1.20;;
41139;SDS011;26881;48.784;9.192;2024-02-23T05:33:24;2.27;;;0.97;;
41139;SDS011;26881;48.784;9.192;2024-02-23T05:38:46;4.40;;;0.90;;
41139;SDS011;26881;48.784;9.192;2024-02-23T05:44:08;5.43;;;1.30;;
41139;SDS011;26881;48.784;9.192;2024-02-23T05:49:30;2.10;;;0.90;;
41139;SDS011;26881;48.784;9.192;2024-02-23T05:54:53;3.67;;;1.20;;
41139;SDS011;26881;48.784;9.192;2024-02-23T06:00:17;3.43;;;1.27;;
41139;SDS011;26881;48.784;9.192;2024-02-23T06:05:43;1.93;;;0.83;;
41139;SDS011;26881;48.784;9.192;2024-02-23T06:11:05;2.07;;;0.70;;
41139;SDS011;26881;48.784;9.192;2024-02-23T06:16:27;3.47;;;0.90;;
41139;SDS011;26881;48.784;9.192;2024-02-23T06:21:49;4.20;;;1.20;;
41139;SDS011;26881;48.784;9.192;2024-02-23T06:27:11;1.37;;;0.80;;
41139;SDS011;26881;48.784;9.192;2024-02-23T06:32:33;2.23;;;0.80;;
41139;SDS011;26881;48.784;9.192;2024-02-23T06:37:56;3.50;;;0.87;;
41139;SDS011;26881;48.784;9.192;2024-02-23T06:43:18;2.87;;;0.97;;
41139;SDS011;26881;48.784;9.192;2024-02-23T06:48:45;3.83;;;1.10;;
41139;SDS011;26881;48.784;9.192;2024-02-23T06:54:07;4.00;;;0.97;;
41139;SDS011;26881;48.784;9.192;2024-02-23T06:59:29;3.13;;;1.10;;
41139;SDS011;26881;48.784;9.192;2024-02-23T07:04:51;1.70;;;1.00;;
41139;SDS011;26881;48.784;9.192;2024-02-23T07:10:16;4.17;;;1.30;;
41139;SDS011;26881;48.784;9.192;2024-02-23T07:15:39;2.40;;;0.80;;
41139;SDS011;26881;48.784;9.192;2024-02-23T07:21:03;2.03;;;1.00;;
41139;SDS011;26881;48.784;9.192;2024-02-23T07:26:26;2.80;;;0.90;;
41139;SDS011;26881;48.784;9.192;2024-02-23T07:31:51;2.87;;;1.00;;
41139;SDS011;26881;48.784;9.192;2024-02-23T07:37:13;4.13;;;1.30;;
41139;SDS011;26881;48.784;9.192;2024-02-23T07:42:35;2.67;;;1.03;;
41139;SDS011;26881;48.784;9.192;2024-02-23T07:47:57;2.87;;;1.00;;
41139;SDS011;26881;48.784;9.192;2024-02-23T07:53:19;5.47;;;1.20;;
41139;SDS011;26881;48.784;9.192;2024-02-23T07:58:41;1.50;;;0.83;;
41139;SDS011;26881;48.784;9.192;2024-02-23T08:04:03;4.20;;;1.17;;
41139;SDS011;26881;48.784;9.192;2024-02-23T08:09:25;1.93;;;0.80;;
41139;SDS011;26881;48.784;9.192;2024-02-23T08:14:47;3.83;;;1.00;;
41139;SDS011;26881;48.784;9.192;2024-02-23T08:20:11;2.73;;;1.00;;
41139;SDS011;26881;48.784;9.192;2024-02-23T08:25:33;4.20;;;1.20;;
41139;SDS011;26881;48.784;9.192;2024-02-23T08:30:55;3.03;;;1.30;;
41139;SDS011;26881;48.784;9.192;2024-02-23T08:36:17;2.73;;;1.00;;
41139;SDS011;26881;48.784;9.192;2024-02-23T08:41:39;4.53;;;1.03;;
41139;SDS011;26881;48.784;9.192;2024-02-23T08:47:01;3.30;;;0.90;;
41139;SDS011;26881;48.784;9.192;2024-02-23T08:52:23;2.30;;;1.00;;
41139;SDS011;26881;48.784;9.192;2024-02-23T08:57:45;4.80;;;1.13;;
41139;SDS011;26881;48.784;9.192;2024-02-23T09:03:07;2.03;;;0.90;;
41139;SDS011;26881;48.784;9.192;2024-02-23T09:08:29;3.17;;;1.30;;
41139;SDS011;26881;48.784;9.192;2024-02-23T09:13:51;3.23;;;0.93;;
41139;SDS011;26881;48.784;9.192;2024-02-23T09:19:13;2.53;;;1.27;;
41139;SDS011;26881;48.784;9.192;2024-02-23T09:24:38;6.70;;;1.20;;
41139;SDS011;26881;48.784;9.192;2024-02-23T09:30:01;3.03;;;1.10;;
41139;SDS011;26881;48.784;9.192;2024-02-23T09:35:23;5.77;;;1.20;;
41139;SDS011;26881;48.784;9.192;2024-02-23T09:40:44;5.50;;;0.80;;
41139;SDS011;26881;48.784;9.192;2024-02-23T09:46:08;3.40;;;1.13;;
41139;SDS011;26881;48.784;9.192;2024-02-23T09:51:30;2.47;;;1.00;;
41139;SDS011;26881;48.784;9.192;2024-02-23T09:56:55;4.47;;;1.25;;
41139;SDS011;26881;48.784;9.192;2024-02-23T10:02:17;3.60;;;1.60;;
41139;SDS011;26881;48.784;9.192;2024-02-23T10:07:39;4.03;;;1.10;;
41139;SDS011;26881;48.784;9.192;2024-02-23T10:13:02;5.68;;;1.42;;
41139;SDS011;26881;48.784;9.192;2024-02-23T10:18:25;4.32;;;1.30;;
41139;SDS011;26881;48.784;9.192;2024-02-23T10:23:48;8.23;;;1.13;;
41139;SDS011;26881;48.784;9.192;2024-02-23T10:29:12;5.23;;;1.33;;
41139;SDS011;26881;48.784;9.192;2024-02-23T10:34:38;6.70;;;1.13;;
41139;SDS011;26881;48.784;9.192;2024-02-23T10:40:06;9.13;;;1.20;;
41139;SDS011;26881;48.784;9.192;2024-02-23T10:45:30;5.13;;;1.10;;
41139;SDS011;26881;48.784;9.192;2024-02-23T10:50:53;3.58;;;1.13;;
41139;SDS011;26881;48.784;9.192;2024-02-23T10:56:15;6.60;;;1.25;;
41139;SDS011;26881;48.784;9.192;2024-02-23T11:01:38;3.63;;;1.05;;
41139;SDS011;26881;48.784;9.192;2024-02-23T11:07:01;8.18;;;1.35;;
41139;SDS011;26881;48.784;9.192;2024-02-23T11:12:29;4.47;;;1.30;;
41139;SDS011;26881;48.784;9.192;2024-02-23T11:17:51;4.70;;;1.30;;
41139;SDS011;26881;48.784;9.192;2024-02-23T11:23:13;4.13;;;1.30;;
41139;SDS011;26881;48.784;9.192;2024-02-23T11:34:11;5.53;;;1.20;;
41139;SDS011;26881;48.784;9.192;2024-02-23T11:39:33;5.03;;;1.23;;
41139;SDS011;26881;48.784;9.192;2024-02-23T11:44:58;7.90;;;1.20;;
41139;SDS011;26881;48.784;9.192;2024-02-23T11:50:22;5.57;;;1.10;;
41139;SDS011;26881;48.784;9.192;2024-02-23T11:55:44;6.77;;;1.60;;
41139;SDS011;26881;48.784;9.192;2024-02-23T12:01:06;4.60;;;1.10;;
41139;SDS011;26881;48.784;9.192;2024-02-23T12:06:29;5.22;;;1.52;;
41139;SDS011;26881;48.784;9.192;2024-02-23T12:11:53;6.50;;;1.25;;
41139;SDS011;26881;48.784;9.192;2024-02-23T12:17:15;4.72;;;1.40;;
41139;SDS011;26881;48.784;9.192;2024-02-23T12:22:38;5.40;;;1.40;;
41139;SDS011;26881;48.784;9.192;2024-02-23T12:28:00;5.53;;;1.17;;
41139;SDS011;26881;48.784;9.192;2024-02-23T12:33:22;6.90;;;1.30;;
41139;SDS011;26881;48.784;9.192;2024-02-23T12:38:44;5.70;;;1.20;;
41139;SDS011;26881;48.784;9.192;2024-02-23T12:44:06;8.25;;;1.48;;
41139;SDS011;26881;48.784;9.192;2024-02-23T12:49:28;4.20;;;1.38;;
41139;SDS011;26881;48.784;9.192;2024-02-23T12:54:50;5.45;;;1.27;;
41139;SDS011;26881;48.784;9.192;2024-02-23T13:00:13;8.00;;;1.80;;
41139;SDS011;26881;48.784;9.192;2024-02-23T13:05:36;6.40;;;1.60;;
41139;SDS011;26881;48.784;9.192;2024-02-23T13:10:57;4.53;;;1.40;;
41139;SDS011;26881;48.784;9.192;2024-02-23T13:16:19;8.55;;;1.45;;
41139;SDS011;26881;48.784;9.192;2024-02-23T13:21:41;6.85;;;1.25;;
41139;SDS011;26881;48.784;9.192;2024-02-23T13:27:03;6.47;;;1.20;;
41139;SDS011;26881;48.784;9.192;2024-02-23T13:32:25;7.07;;;1.33;;
41139;SDS011;26881;48.784;9.192;2024-02-23T13:37:47;5.82;;;1.58;;
41139;SDS011;26881;48.784;9.192;2024-02-23T13:43:09;7.53;;;1.50;;
41139;SDS011;26881;48.784;9.192;2024-02-23T13:48:32;4.82;;;1.33;;
41139;SDS011;26881;48.784;9.192;2024-02-23T13:53:54;6.53;;;1.40;;
41139;SDS011;26881;48.784;9.192;2024-02-23T13:59:16;7.03;;;1.70;;
41139;SDS011;26881;48.784;9.192;2024-02-23T14:04:38;4.22;;;1.15;;
41139;SDS011;26881;48.784;9.192;2024-02-23T14:10:00;4.22;;;1.15;;
41139;SDS011;26881;48.784;9.192;2024-02-23T14:15:24;11.98;;;1.88;;
41139;SDS011;26881;48.784;9.192;2024-02-23T14:20:46;9.43;;;1.63;;
41139;SDS011;26881;48.784;9.192;2024-02-23T14:26:09;6.05;;;1.75;;
41139;SDS011;26881;48.784;9.192;2024-02-23T14:31:31;6.18;;;1.50;;
41139;SDS011;26881;48.784;9.192;2024-02-23T14:36:53;7.95;;;1.90;;
41139;SDS011;26881;48.784;9.192;2024-02-23T14:42:15;8.47;;;1.73;;
41139;SDS011;26881;48.784;9.192;2024-02-23T14:47:37;6.40;;;1.47;;
41139;SDS011;26881;48.784;9.192;2024-02-23T14:53:06;8.30;;;1.52;;
41139;SDS011;26881;48.784;9.192;2024-02-23T14:58:30;7.07;;;1.42;;
41139;SDS011;26881;48.784;9.192;2024-02-23T15:03:52;5.97;;;1.40;;
41139;SDS011;26881;48.784;9.192;2024-02-23T15:09:14;6.32;;;1.38;;
41139;SDS011;26881;48.784;9.192;2024-02-23T15:14:36;6.88;;;1.58;;
41139;SDS011;26881;48.784;9.192;2024-02-23T15:19:59;5.80;;;1.40;;
41139;SDS011;26881;48.784;9.192;2024-02-23T15:25:21;6.55;;;1.77;;
41139;SDS011;26881;48.784;9.192;2024-02-23T15:30:43;7.40;;;1.40;;
41139;SDS011;26881;48.784;9.192;2024-02-23T15:36:06;5.60;;;1.40;;
41139;SDS011;26881;48.784;9.192;2024-02-23T15:41:30;6.50;;;1.40;;
41139;SDS011;26881;48.784;9.192;2024-02-23T15:46:53;9.47;;;1.90;;
41139;SDS011;26881;48.784;9.192;2024-02-23T15:52:15;7.03;;;1.30;;
41139;SDS011;26881;48.784;9.192;2024-02-23T15:57:37;6.68;;;1.60;;
41139;SDS011;26881;48.784;9.192;2024-02-23T16:03:01;3.10;;;1.60;;
41139;SDS011;26881;48.784;9.192;2024-02-23T16:14:02;6.22;;;1.98;;
41139;SDS011;26881;48.784;9.192;2024-02-23T16:19:26;4.60;;;1.65;;
41139;SDS011;26881;48.784;9.192;2024-02-23T16:24:48;6.03;;;1.80;;
41139;SDS011;26881;48.784;9.192;2024-02-23T16:30:10;5.35;;;1.40;;
41139;SDS011;26881;48.784;9.192;2024-02-23T16:35:32;7.95;;;1.60;;
41139;SDS011;26881;48.784;9.192;2024-02-23T16:40:54;6.22;;;1.50;;
41139;SDS011;26881;48.784;9.192;2024-02-23T16:46:17;6.63;;;2.00;;
41139;SDS011;26881;48.784;9.192;2024-02-23T16:51:39;7.18;;;1.70;;
41139;SDS011;26881;48.784;9.192;2024-02-23T16:57:01;6.75;;;2.00;;
41139;SDS011;26881;48.784;9.192;2024-02-23T17:02:23;4.57;;;1.70;;
41139;SDS011;26881;48.784;9.192;2024-02-23T17:07:45;5.80;;;1.57;;
41139;SDS011;26881;48.784;9.192;2024-02-23T17:13:07;8.20;;;3.30;;
41139;SDS011;26881;48.784;9.192;2024-02-23T17:18:29;8.50;;;2.10;;
41139;SDS011;26881;48.784;9.192;2024-02-23T17:23:51;6.47;;;2.20;;
41139;SDS011;26881;48.784;9.192;2024-02-23T17:29:13;6.50;;;2.00;;
41139;SDS011;26881;48.784;9.192;2024-02-23T17:34:35;8.43;;;2.53;;
41139;SDS011;26881;48.784;9.192;2024-02-23T17:39:57;9.25;;;2.30;;
41139;SDS011;26881;48.784;9.192;2024-02-23T17:45:19;6.33;;;1.83;;
41139;SDS011;26881;48.784;9.192;2024-02-23T17:50:40;10.13;;;3.07;;
41139;SDS011;26881;48.784;9.192;2024-02-23T17:56:02;6.23;;;1.73;;
41139;SDS011;26881;48.784;9.192;2024-02-23T18:01:25;8.47;;;2.10;;
41139;SDS011;26881;48.784;9.192;2024-02-23T18:06:48;9.17;;;1.80;;
41139;SDS011;26881;48.784;9.192;2024-02-23T18:12:12;5.83;;;2.00;;
41139;SDS011;26881;48.784;9.192;2024-02-23T18:17:34;8.87;;;2.00;;
41139;SDS011;26881;48.784;9.192;2024-02-23T18:22:56;6.00;;;2.00;;
41139;SDS011;26881;48.784;9.192;2024-02-23T18:28:20;7.20;;;1.97;;
41139;SDS011;26881;48.784;9.192;2024-02-23T18:33:42;9.63;;;2.00;;
41139;SDS011;26881;48.784;9.192;2024-02-23T18:39:04;5.63;;;1.83;;
41139;SDS011;26881;48.784;9.192;2024-02-23T18:44:28;8.50;;;2.47;;
41139;SDS011;26881;48.784;9.192;2024-02-23T18:49:50;5.00;;;1.57;;
41139;SDS011;26881;48.784;9.192;2024-02-23T18:55:12;4.70;;;1.93;;
41139;SDS011;26881;48.784;9.192;2024-02-23T19:00:34;5.73;;;1.70;;
41139;SDS011;26881;48.784;9.192;2024-02-23T19:05:57;6.33;;;2.10;;
41139;SDS011;26881;48.784;9.192;2024-02-23T19:11:19;6.60;;;1.90;;
41139;SDS011;26881;48.784;9.192;2024-02-23T19:16:41;6.03;;;1.87;;
41139;SDS011;26881;48.784;9.192;2024-02-23T19:22:05;3.23;;;1.77;;
41139;SDS011;26881;48.784;9.192;2024-02-23T19:27:28;4.83;;;1.50;;
41139;SDS011;26881;48.784;9.192;2024-02-23T19:32:50;9.13;;;2.10;;
41139;SDS011;26881;48.784;9.192;2024-02-23T19:38:12;5.67;;;1.73;;
41139;SDS011;26881;48.784;9.192;2024-02-23T19:43:34;4.27;;;1.70;;
41139;SDS011;26881;48.784;9.192;2024-02-23T19:48:59;4.17;;;1.50;;
41139;SDS011;26881;48.784;9.192;2024-02-23T19:54:21;4.87;;;1.57;;
41139;SDS011;26881;48.784;9.192;2024-02-23T19:59:43;7.07;;;2.67;;
41139;SDS011;26881;48.784;9.192;2024-02-23T20:05:05;8.33;;;2.30;;
41139;SDS011;26881;48.784;9.192;2024-02-23T20:10:28;5.37;;;1.90;;
41139;SDS011;26881;48.784;9.192;2024-02-23T20:15:50;8.13;;;2.30;;
41139;SDS011;26881;48.784;9.192;2024-02-23T20:21:14;6.70;;;2.20;;
41139;SDS011;26881;48.784;9.192;2024-02-23T20:26:36;7.27;;;1.80;;
41139;SDS011;26881;48.784;9.192;2024-02-23T20:31:58;5.63;;;2.23;;
41139;SDS011;26881;48.784;9.192;2024-02-23T20:37:20;5.33;;;1.77;;
41139;SDS011;26881;48.784;9.192;2024-02-23T20:42:42;6.77;;;2.10;;
41139;SDS011;26881;48.784;9.192;2024-02-23T20:48:05;2.20;;;1.60;;
41139;SDS011;26881;48.784;9.192;2024-02-23T20:53:27;4.13;;;2.03;;
41139;SDS011;26881;48.784;9.192;2024-02-23T20:58:49;3.40;;;1.80;;
41139;SDS011;26881;48.784;9.192;2024-02-23T21:04:12;4.67;;;2.63;;
41139;SDS011;26881;48.784;9.192;2024-02-23T21:09:34;3.33;;;2.23;;
41139;SDS011;26881;48.784;9.192;2024-02-23T21:14:56;3.87;;;2.40;;
41139;SDS011;26881;48.784;9.192;2024-02-23T21:20:18;4.17;;;2.20;;
41139;SDS011;26881;48.784;9.192;2024-02-23T21:25:41;3.40;;;1.67;;
41139;SDS011;26881;48.784;9.192;2024-02-23T21:31:05;3.33;;;2.23;;
41139;SDS011;26881;48.784;9.192;2024-02-23T21:36:30;3.43;;;1.80;;
41139;SDS011;26881;48.784;9.192;2024-02-23T21:41:52;5.33;;;2.10;;
41139;SDS011;26881;48.784;9.192;2024-02-23T21:47:14;4.07;;;2.00;;
41139;SDS011;26881;48.784;9.192;2024-02-23T21:52:36;2.70;;;1.87;;
41139;SDS011;26881;48.784;9.192;2024-02-23T21:57:59;5.80;;;2.50;;
41139;SDS011;26881;48.784;9.192;2024-02-23T22:03:20;5.87;;;2.47;;
41139;SDS011;26881;48.784;9.192;2024-02-23T22:08:46;6.30;;;2.80;;
41139;SDS011;26881;48.784;9.192;2024-02-23T22:14:08;9.67;;;3.17;;
41139;SDS011;26881;48.784;9.192;2024-02-23T22:19:30;6.60;;;2.67;;
41139;SDS011;26881;48.784;9.192;2024-02-23T22:24:51;3.63;;;1.93;;
41139;SDS011;26881;48.784;9.192;2024-02-23T22:30:18;8.80;;;3.03;;
41139;SDS011;26881;48.784;9.192;2024-02-23T22:35:40;8.97;;;3.20;;
41139;SDS011;26881;48.784;9.192;2024-02-23T22:41:02;7.13;;;3.50;;
41139;SDS011;26881;48.784;9.192;2024-02-23T22:46:26;9.20;;;3.80;;
41139;SDS011;26881;48.784;9.192;2024-02-23T22:51:48;7.50;;;4.07;;
41139;SDS011;26881;48.784;9.192;2024-02-23T22:57:10;8.20;;;4.20;;
41139;SDS011;26881;48.784;9.192;2024-02-23T23:02:32;8.00;;;3.97;;
41139;SDS011;26881;48.784;9.192;2024-02-23T23:07:54;7.47;;;3.37;;
41139;SDS011;26881;48.784;9.192;2024-02-23T23:13:16;7.60;;;4.30;;
41139;SDS011;26881;48.784;9.192;2024-02-23T23:18:38;7.37;;;4.40;;
41139;SDS011;26881;48.784;9.192;2024-02-23T23:24:00;7.37;;;4.00;;
41139;SDS011;26881;48.784;9.192;2024-02-23T23:29:22;6.47;;;3.60;;
41139;SDS011;26881;48.784;9.192;2024-02-23T23:34:46;7.50;;;3.30;;
41139;SDS011;26881;48.784;9.192;2024-02-23T23:40:11;6.07;;;3.43;;
41139;SDS011;26881;48.784;9.192;2024-02-23T23:45:34;5.90;;;4.03;;
41139;SDS011;26881;48.784;9.192;2024-02-23T23:50:55;8.13;;;4.20;;
41139;SDS011;26881;48.784;9.192;2024-02-23T23:56:17;6.40;;;3.47;;
